sensor_id;sensor_type;location;lat;lon;timestamp;temperature;humidity
11840;DHT22;5979;50.800;4.904;2022-10-16T00:01:30;14.20;99.90
11840;DHT22;5979;50.800;4.904;2022-10-16T00:03:57;14.20;99.90
11840;DHT22;5979;50.800;4.904;2022-10-16T00:06:24;14.20;99.90
11840;DHT22;5979;50.800;4.904;2022-10-16T00:08:51;14.20;99.90
11840;DHT22;5979;50.800;4.904;2022-10-16T00:11:22;14.10;99.90
11840;DHT22;5979;50.800;4.904;2022-10-16T00:13:51;14.10;99.90
11840;DHT22;5979;50.800;4.904;2022-10-16T00:16:18;14.10;99.90
11840;DHT22;5979;50.800;4.904;2022-10-16T00:18:44;14.10;99.90
11840;DHT22;5979;50.800;4.904;2022-10-16T00:21:21;14.00;99.90
11840;DHT22;5979;50.800;4.904;2022-10-16T00:23:51;14.00;99.90
11840;DHT22;5979;50.800;4.904;2022-10-16T00:26:18;14.00;99.90
11840;DHT22;5979;50.800;4.904;2022-10-16T00:28:49;14.00;99.90
11840;DHT22;5979;50.800;4.904;2022-10-16T00:31:17;14.00;99.90
11840;DHT22;5979;50.800;4.904;2022-10-16T00:33:43;14.00;99.90
11840;DHT22;5979;50.800;4.904;2022-10-16T00:36:12;14.00;99.90
11840;DHT22;5979;50.800;4.904;2022-10-16T00:38:38;13.90;99.90
11840;DHT22;5979;50.800;4.904;2022-10-16T00:41:05;13.90;99.90
11840;DHT22;5979;50.800;4.904;2022-10-16T00:46:23;13.90;99.90
11840;DHT22;5979;50.800;4.904;2022-10-16T00:49:04;13.90;99.90
11840;DHT22;5979;50.800;4.904;2022-10-16T00:51:37;13.90;99.90
11840;DHT22;5979;50.800;4.904;2022-10-16T00:54:07;13.80;99.90
11840;DHT22;5979;50.800;4.904;2022-10-16T00:56:33;13.80;99.90
11840;DHT22;5979;50.800;4.904;2022-10-16T00:59:01;13.80;99.90
11840;DHT22;5979;50.800;4.904;2022-10-16T01:01:29;13.80;99.90
11840;DHT22;5979;50.800;4.904;2022-10-16T01:03:55;13.80;99.90
11840;DHT22;5979;50.800;4.904;2022-10-16T01:06:39;13.80;99.90
11840;DHT22;5979;50.800;4.904;2022-10-16T01:09:31;13.70;99.90
11840;DHT22;5979;50.800;4.904;2022-10-16T01:12:21;13.70;99.90
11840;DHT22;5979;50.800;4.904;2022-10-16T01:15:01;13.70;99.90
11840;DHT22;5979;50.800;4.904;2022-10-16T01:17:34;13.70;99.90
11840;DHT22;5979;50.800;4.904;2022-10-16T01:20:04;13.70;99.90
11840;DHT22;5979;50.800;4.904;2022-10-16T01:22:50;13.60;99.90
11840;DHT22;5979;50.800;4.904;2022-10-16T01:28:28;13.70;99.90
11840;DHT22;5979;50.800;4.904;2022-10-16T01:30:58;13.70;99.90
11840;DHT22;5979;50.800;4.904;2022-10-16T01:33:38;13.70;99.90
11840;DHT22;5979;50.800;4.904;2022-10-16T01:36:18;13.70;99.90
11840;DHT22;5979;50.800;4.904;2022-10-16T01:38:50;13.70;99.90
11840;DHT22;5979;50.800;4.904;2022-10-16T01:42:06;13.60;99.90
11840;DHT22;5979;50.800;4.904;2022-10-16T01:46:43;13.60;99.90
11840;DHT22;5979;50.800;4.904;2022-10-16T01:49:12;13.60;99.90
11840;DHT22;5979;50.800;4.904;2022-10-16T01:51:38;13.70;99.90
11840;DHT22;5979;50.800;4.904;2022-10-16T01:54:07;13.60;99.90
11840;DHT22;5979;50.800;4.904;2022-10-16T01:56:34;13.70;99.90
11840;DHT22;5979;50.800;4.904;2022-10-16T01:59:09;13.70;99.90
11840;DHT22;5979;50.800;4.904;2022-10-16T02:01:39;13.70;99.90
11840;DHT22;5979;50.800;4.904;2022-10-16T02:04:24;13.70;99.90
11840;DHT22;5979;50.800;4.904;2022-10-16T02:06:52;13.70;99.90
11840;DHT22;5979;50.800;4.904;2022-10-16T02:09:18;13.70;99.90
11840;DHT22;5979;50.800;4.904;2022-10-16T02:11:44;13.70;99.90
11840;DHT22;5979;50.800;4.904;2022-10-16T02:14:10;13.70;99.90
11840;DHT22;5979;50.800;4.904;2022-10-16T02:16:42;13.70;99.90
11840;DHT22;5979;50.800;4.904;2022-10-16T02:19:08;13.60;99.90
11840;DHT22;5979;50.800;4.904;2022-10-16T02:21:41;13.60;99.90
11840;DHT22;5979;50.800;4.904;2022-10-16T02:30:02;13.60;99.90
11840;DHT22;5979;50.800;4.904;2022-10-16T02:32:34;13.60;99.90
11840;DHT22;5979;50.800;4.904;2022-10-16T02:35:00;13.60;99.90
11840;DHT22;5979;50.800;4.904;2022-10-16T02:37:27;13.60;99.90
11840;DHT22;5979;50.800;4.904;2022-10-16T02:39:55;13.60;99.90
11840;DHT22;5979;50.800;4.904;2022-10-16T02:42:21;13.60;99.90
11840;DHT22;5979;50.800;4.904;2022-10-16T02:44:52;13.60;99.90
11840;DHT22;5979;50.800;4.904;2022-10-16T02:47:18;13.60;99.90
11840;DHT22;5979;50.800;4.904;2022-10-16T02:49:44;13.60;99.90
11840;DHT22;5979;50.800;4.904;2022-10-16T02:52:09;13.60;99.90
11840;DHT22;5979;50.800;4.904;2022-10-16T02:54:35;13.60;99.90
11840;DHT22;5979;50.800;4.904;2022-10-16T02:57:01;13.70;99.90
11840;DHT22;5979;50.800;4.904;2022-10-16T02:59:26;13.70;99.90
11840;DHT22;5979;50.800;4.904;2022-10-16T03:01:52;13.60;99.90
11840;DHT22;5979;50.800;4.904;2022-10-16T03:04:18;13.60;99.90
11840;DHT22;5979;50.800;4.904;2022-10-16T03:06:43;13.50;99.90
11840;DHT22;5979;50.800;4.904;2022-10-16T03:09:09;13.60;99.90
11840;DHT22;5979;50.800;4.904;2022-10-16T03:11:35;13.60;99.90
11840;DHT22;5979;50.800;4.904;2022-10-16T03:14:00;13.50;99.90
11840;DHT22;5979;50.800;4.904;2022-10-16T03:16:26;13.60;99.90
11840;DHT22;5979;50.800;4.904;2022-10-16T08:25:06;17.60;99.90
11840;DHT22;5979;50.800;4.904;2022-10-16T08:27:32;17.60;99.90
11840;DHT22;5979;50.800;4.904;2022-10-16T08:29:58;17.70;99.90
11840;DHT22;5979;50.800;4.904;2022-10-16T08:32:24;17.70;99.90
11840;DHT22;5979;50.800;4.904;2022-10-16T08:34:49;17.80;99.90
11840;DHT22;5979;50.800;4.904;2022-10-16T08:37:15;17.80;99.90
11840;DHT22;5979;50.800;4.904;2022-10-16T08:39:41;17.90;99.90
11840;DHT22;5979;50.800;4.904;2022-10-16T08:42:36;18.00;99.90
11840;DHT22;5979;50.800;4.904;2022-10-16T08:50:12;18.20;99.90
11840;DHT22;5979;50.800;4.904;2022-10-16T08:52:41;18.30;99.90
11840;DHT22;5979;50.800;4.904;2022-10-16T08:58:12;18.40;99.90
11840;DHT22;5979;50.800;4.904;2022-10-16T09:00:39;18.40;99.90
11840;DHT22;5979;50.800;4.904;2022-10-16T09:09:21;18.60;99.90
11840;DHT22;5979;50.800;4.904;2022-10-16T09:22:40;18.80;99.90
11840;DHT22;5979;50.800;4.904;2022-10-16T09:25:18;18.90;99.90
11840;DHT22;5979;50.800;4.904;2022-10-16T09:27:48;18.90;99.90
11840;DHT22;5979;50.800;4.904;2022-10-16T09:30:20;19.00;99.90
11840;DHT22;5979;50.800;4.904;2022-10-16T09:32:48;19.10;99.90
11840;DHT22;5979;50.800;4.904;2022-10-16T09:35:21;19.10;99.90
11840;DHT22;5979;50.800;4.904;2022-10-16T09:37:50;19.20;99.90
11840;DHT22;5979;50.800;4.904;2022-10-16T09:40:30;19.20;99.90
11840;DHT22;5979;50.800;4.904;2022-10-16T09:43:25;19.30;99.90
11840;DHT22;5979;50.800;4.904;2022-10-16T09:46:06;19.40;99.90
11840;DHT22;5979;50.800;4.904;2022-10-16T09:48:43;19.40;99.90
11840;DHT22;5979;50.800;4.904;2022-10-16T09:54:01;19.20;99.90
11840;DHT22;5979;50.800;4.904;2022-10-16T09:56:32;19.20;99.90
11840;DHT22;5979;50.800;4.904;2022-10-16T09:59:08;19.20;99.90
11840;DHT22;5979;50.800;4.904;2022-10-16T10:01:38;19.20;99.90
11840;DHT22;5979;50.800;4.904;2022-10-16T10:04:05;19.20;99.90
11840;DHT22;5979;50.800;4.904;2022-10-16T10:06:45;19.30;99.90
11840;DHT22;5979;50.800;4.904;2022-10-16T10:09:16;19.50;99.90
11840;DHT22;5979;50.800;4.904;2022-10-16T10:14:43;19.70;99.90
11840;DHT22;5979;50.800;4.904;2022-10-16T10:17:20;19.80;99.90
11840;DHT22;5979;50.800;4.904;2022-10-16T10:22:39;20.00;99.90
11840;DHT22;5979;50.800;4.904;2022-10-16T10:32:53;19.70;99.90
11840;DHT22;5979;50.800;4.904;2022-10-16T10:38:34;19.60;99.90
11840;DHT22;5979;50.800;4.904;2022-10-16T10:43:41;19.80;99.90
11840;DHT22;5979;50.800;4.904;2022-10-16T10:46:22;19.90;99.90
11840;DHT22;5979;50.800;4.904;2022-10-16T10:49:43;20.00;99.90
11840;DHT22;5979;50.800;4.904;2022-10-16T10:51:51;20.10;99.90
11840;DHT22;5979;50.800;4.904;2022-10-16T10:57:22;19.90;99.90
11840;DHT22;5979;50.800;4.904;2022-10-16T11:03:12;19.90;99.90
11840;DHT22;5979;50.800;4.904;2022-10-16T11:06:10;19.90;99.90
11840;DHT22;5979;50.800;4.904;2022-10-16T11:11:25;19.80;99.90
11840;DHT22;5979;50.800;4.904;2022-10-16T11:14:00;19.70;99.90
11840;DHT22;5979;50.800;4.904;2022-10-16T11:16:42;19.70;99.90
11840;DHT22;5979;50.800;4.904;2022-10-16T11:19:31;19.80;99.90
11840;DHT22;5979;50.800;4.904;2022-10-16T11:22:34;19.90;99.90
11840;DHT22;5979;50.800;4.904;2022-10-16T11:25:13;20.00;99.90
11840;DHT22;5979;50.800;4.904;2022-10-16T11:28:14;20.00;99.90
11840;DHT22;5979;50.800;4.904;2022-10-16T11:30:49;20.00;99.90
11840;DHT22;5979;50.800;4.904;2022-10-16T11:36:08;20.10;99.90
11840;DHT22;5979;50.800;4.904;2022-10-16T11:41:18;20.50;99.90
11840;DHT22;5979;50.800;4.904;2022-10-16T11:44:00;20.60;99.90
11840;DHT22;5979;50.800;4.904;2022-10-16T11:46:31;20.50;99.90
11840;DHT22;5979;50.800;4.904;2022-10-16T11:49:10;20.50;99.90
11840;DHT22;5979;50.800;4.904;2022-10-16T11:57:47;20.60;99.90
11840;DHT22;5979;50.800;4.904;2022-10-16T12:08:49;20.70;99.90
11840;DHT22;5979;50.800;4.904;2022-10-16T12:13:50;20.90;99.90
11840;DHT22;5979;50.800;4.904;2022-10-16T12:18:43;21.10;99.90
11840;DHT22;5979;50.800;4.904;2022-10-16T12:21:10;21.30;99.90
11840;DHT22;5979;50.800;4.904;2022-10-16T12:24:02;21.40;99.90
11840;DHT22;5979;50.800;4.904;2022-10-16T12:26:33;21.50;99.90
11840;DHT22;5979;50.800;4.904;2022-10-16T12:29:28;21.50;99.90
11840;DHT22;5979;50.800;4.904;2022-10-16T12:31:55;21.60;99.90
11840;DHT22;5979;50.800;4.904;2022-10-16T12:34:29;21.60;99.90
11840;DHT22;5979;50.800;4.904;2022-10-16T12:39:39;21.50;99.90
11840;DHT22;5979;50.800;4.904;2022-10-16T12:42:20;21.40;99.90
11840;DHT22;5979;50.800;4.904;2022-10-16T12:44:46;21.20;99.90
11840;DHT22;5979;50.800;4.904;2022-10-16T12:49:57;21.10;99.90
11840;DHT22;5979;50.800;4.904;2022-10-16T12:52:29;21.00;99.90
11840;DHT22;5979;50.800;4.904;2022-10-16T12:55:00;20.90;99.90
11840;DHT22;5979;50.800;4.904;2022-10-16T13:00:44;20.90;99.90
11840;DHT22;5979;50.800;4.904;2022-10-16T13:06:12;20.90;99.90
11840;DHT22;5979;50.800;4.904;2022-10-16T13:11:28;20.70;99.90
11840;DHT22;5979;50.800;4.904;2022-10-16T13:16:28;20.60;99.90
11840;DHT22;5979;50.800;4.904;2022-10-16T13:19:15;20.60;99.90
11840;DHT22;5979;50.800;4.904;2022-10-16T13:22:06;20.50;99.90
11840;DHT22;5979;50.800;4.904;2022-10-16T13:27:29;20.50;99.90
11840;DHT22;5979;50.800;4.904;2022-10-16T13:30:20;20.50;99.90
11840;DHT22;5979;50.800;4.904;2022-10-16T13:32:48;20.50;99.90
11840;DHT22;5979;50.800;4.904;2022-10-16T13:35:26;20.40;99.90
11840;DHT22;5979;50.800;4.904;2022-10-16T13:38:25;20.30;99.90
11840;DHT22;5979;50.800;4.904;2022-10-16T13:43:14;20.10;99.90
11840;DHT22;5979;50.800;4.904;2022-10-16T13:45:40;20.10;99.90
11840;DHT22;5979;50.800;4.904;2022-10-16T13:48:09;20.10;99.90
11840;DHT22;5979;50.800;4.904;2022-10-16T13:50:37;20.20;99.90
11840;DHT22;5979;50.800;4.904;2022-10-16T13:53:11;20.20;99.90
11840;DHT22;5979;50.800;4.904;2022-10-16T13:55:38;20.30;99.90
11840;DHT22;5979;50.800;4.904;2022-10-16T13:58:14;20.40;99.90
11840;DHT22;5979;50.800;4.904;2022-10-16T14:00:41;20.60;99.90
11840;DHT22;5979;50.800;4.904;2022-10-16T14:03:18;20.60;99.90
11840;DHT22;5979;50.800;4.904;2022-10-16T14:05:50;20.50;99.90
11840;DHT22;5979;50.800;4.904;2022-10-16T14:08:17;20.50;99.90
11840;DHT22;5979;50.800;4.904;2022-10-16T14:10:46;20.40;99.90
11840;DHT22;5979;50.800;4.904;2022-10-16T14:13:17;20.30;99.90
11840;DHT22;5979;50.800;4.904;2022-10-16T14:15:47;20.20;99.90
11840;DHT22;5979;50.800;4.904;2022-10-16T14:18:19;20.20;99.90
11840;DHT22;5979;50.800;4.904;2022-10-16T14:20:45;20.20;99.90
11840;DHT22;5979;50.800;4.904;2022-10-16T14:23:29;20.20;99.90
11840;DHT22;5979;50.800;4.904;2022-10-16T14:26:06;20.30;99.90
11840;DHT22;5979;50.800;4.904;2022-10-16T14:28:41;20.30;99.90
11840;DHT22;5979;50.800;4.904;2022-10-16T14:31:36;20.20;99.90
11840;DHT22;5979;50.800;4.904;2022-10-16T14:34:03;20.20;99.90
11840;DHT22;5979;50.800;4.904;2022-10-16T14:36:29;20.10;99.90
11840;DHT22;5979;50.800;4.904;2022-10-16T14:39:05;20.20;99.90
11840;DHT22;5979;50.800;4.904;2022-10-16T14:41:33;20.20;99.90
11840;DHT22;5979;50.800;4.904;2022-10-16T14:44:06;20.10;99.90
11840;DHT22;5979;50.800;4.904;2022-10-16T14:46:36;20.10;99.90
11840;DHT22;5979;50.800;4.904;2022-10-16T14:51:41;20.10;99.90
11840;DHT22;5979;50.800;4.904;2022-10-16T14:54:14;20.10;99.90
11840;DHT22;5979;50.800;4.904;2022-10-16T14:57:03;20.10;99.90
11840;DHT22;5979;50.800;4.904;2022-10-16T14:59:36;20.00;99.90
11840;DHT22;5979;50.800;4.904;2022-10-16T15:04:48;20.00;99.90
11840;DHT22;5979;50.800;4.904;2022-10-16T15:07:14;19.90;99.90
11840;DHT22;5979;50.800;4.904;2022-10-16T15:09:40;19.90;99.90
11840;DHT22;5979;50.800;4.904;2022-10-16T15:12:05;19.80;99.90
11840;DHT22;5979;50.800;4.904;2022-10-16T15:14:31;19.70;99.90
11840;DHT22;5979;50.800;4.904;2022-10-16T15:16:57;19.70;99.90
11840;DHT22;5979;50.800;4.904;2022-10-16T15:19:22;19.50;99.90
11840;DHT22;5979;50.800;4.904;2022-10-16T15:21:48;19.40;99.90
11840;DHT22;5979;50.800;4.904;2022-10-16T15:24:15;19.30;99.90
11840;DHT22;5979;50.800;4.904;2022-10-16T15:26:41;19.30;99.90
11840;DHT22;5979;50.800;4.904;2022-10-16T15:29:07;19.20;99.90
11840;DHT22;5979;50.800;4.904;2022-10-16T15:31:33;19.10;99.90
11840;DHT22;5979;50.800;4.904;2022-10-16T15:33:59;19.10;99.90
11840;DHT22;5979;50.800;4.904;2022-10-16T15:36:34;19.00;99.90
11840;DHT22;5979;50.800;4.904;2022-10-16T15:39:22;19.00;99.90
11840;DHT22;5979;50.800;4.904;2022-10-16T15:41:47;19.00;99.90
11840;DHT22;5979;50.800;4.904;2022-10-16T15:44:16;18.90;99.90
11840;DHT22;5979;50.800;4.904;2022-10-16T15:46:42;18.90;99.90
11840;DHT22;5979;50.800;4.904;2022-10-16T15:49:09;18.90;99.90
11840;DHT22;5979;50.800;4.904;2022-10-16T15:51:38;18.70;99.90
11840;DHT22;5979;50.800;4.904;2022-10-16T15:54:03;18.70;99.90
11840;DHT22;5979;50.800;4.904;2022-10-16T15:56:29;18.60;99.90
11840;DHT22;5979;50.800;4.904;2022-10-16T15:58:58;18.50;99.90
11840;DHT22;5979;50.800;4.904;2022-10-16T16:01:24;18.40;99.90
11840;DHT22;5979;50.800;4.904;2022-10-16T16:03:53;18.30;99.90
11840;DHT22;5979;50.800;4.904;2022-10-16T16:06:18;18.20;99.90
11840;DHT22;5979;50.800;4.904;2022-10-16T16:08:44;18.10;99.90
11840;DHT22;5979;50.800;4.904;2022-10-16T16:11:12;18.00;99.90
11840;DHT22;5979;50.800;4.904;2022-10-16T16:13:39;17.90;99.90
11840;DHT22;5979;50.800;4.904;2022-10-16T16:16:07;17.80;99.90
11840;DHT22;5979;50.800;4.904;2022-10-16T16:18:33;17.80;99.90
11840;DHT22;5979;50.800;4.904;2022-10-16T16:20:59;17.70;99.90
11840;DHT22;5979;50.800;4.904;2022-10-16T16:23:24;17.70;99.90
11840;DHT22;5979;50.800;4.904;2022-10-16T16:26:27;17.70;99.90
11840;DHT22;5979;50.800;4.904;2022-10-16T16:28:54;17.70;99.90
11840;DHT22;5979;50.800;4.904;2022-10-16T16:31:24;17.50;99.90
11840;DHT22;5979;50.800;4.904;2022-10-16T16:33:50;17.50;99.90
11840;DHT22;5979;50.800;4.904;2022-10-16T16:36:17;17.40;99.90
11840;DHT22;5979;50.800;4.904;2022-10-16T16:38:44;17.40;99.90
11840;DHT22;5979;50.800;4.904;2022-10-16T16:41:19;17.30;99.90
11840;DHT22;5979;50.800;4.904;2022-10-16T16:43:45;17.30;99.90
11840;DHT22;5979;50.800;4.904;2022-10-16T16:46:13;17.40;99.90
11840;DHT22;5979;50.800;4.904;2022-10-16T16:48:39;17.40;99.90
11840;DHT22;5979;50.800;4.904;2022-10-16T16:51:07;17.30;99.90
11840;DHT22;5979;50.800;4.904;2022-10-16T16:53:35;17.30;99.90
11840;DHT22;5979;50.800;4.904;2022-10-16T16:56:02;17.30;99.90
11840;DHT22;5979;50.800;4.904;2022-10-16T16:58:28;17.20;99.90
11840;DHT22;5979;50.800;4.904;2022-10-16T17:00:54;17.20;99.90
11840;DHT22;5979;50.800;4.904;2022-10-16T17:03:19;17.10;99.90
11840;DHT22;5979;50.800;4.904;2022-10-16T17:05:58;17.10;99.90
11840;DHT22;5979;50.800;4.904;2022-10-16T17:08:24;17.00;99.90
11840;DHT22;5979;50.800;4.904;2022-10-16T17:10:50;16.90;99.90
11840;DHT22;5979;50.800;4.904;2022-10-16T17:13:19;16.90;99.90
11840;DHT22;5979;50.800;4.904;2022-10-16T17:15:48;16.90;99.90
11840;DHT22;5979;50.800;4.904;2022-10-16T17:18:14;16.80;99.90
11840;DHT22;5979;50.800;4.904;2022-10-16T17:20:41;16.90;99.90
11840;DHT22;5979;50.800;4.904;2022-10-16T17:23:07;17.00;99.90
11840;DHT22;5979;50.800;4.904;2022-10-16T17:25:40;17.10;99.90
11840;DHT22;5979;50.800;4.904;2022-10-16T17:28:07;17.10;99.90
11840;DHT22;5979;50.800;4.904;2022-10-16T17:30:33;17.10;99.90
11840;DHT22;5979;50.800;4.904;2022-10-16T17:33:00;17.10;99.90
11840;DHT22;5979;50.800;4.904;2022-10-16T17:35:26;17.10;99.90
11840;DHT22;5979;50.800;4.904;2022-10-16T17:37:53;17.10;99.90
11840;DHT22;5979;50.800;4.904;2022-10-16T17:40:19;17.10;99.90
11840;DHT22;5979;50.800;4.904;2022-10-16T17:42:45;17.10;99.90
11840;DHT22;5979;50.800;4.904;2022-10-16T17:45:13;17.00;99.90
11840;DHT22;5979;50.800;4.904;2022-10-16T17:47:39;17.10;99.90
11840;DHT22;5979;50.800;4.904;2022-10-16T17:50:07;17.00;99.90
11840;DHT22;5979;50.800;4.904;2022-10-16T17:52:33;16.80;99.90
11840;DHT22;5979;50.800;4.904;2022-10-16T17:54:59;16.70;99.90
11840;DHT22;5979;50.800;4.904;2022-10-16T17:57:24;16.70;99.90
11840;DHT22;5979;50.800;4.904;2022-10-16T17:59:50;16.70;99.90
11840;DHT22;5979;50.800;4.904;2022-10-16T18:02:16;16.70;99.90
11840;DHT22;5979;50.800;4.904;2022-10-16T18:04:43;16.60;99.90
11840;DHT22;5979;50.800;4.904;2022-10-16T18:07:09;16.60;99.90
11840;DHT22;5979;50.800;4.904;2022-10-16T18:09:34;16.60;99.90
11840;DHT22;5979;50.800;4.904;2022-10-16T18:12:00;16.50;99.90
11840;DHT22;5979;50.800;4.904;2022-10-16T18:14:28;16.50;99.90
11840;DHT22;5979;50.800;4.904;2022-10-16T18:16:54;16.40;99.90
11840;DHT22;5979;50.800;4.904;2022-10-16T18:19:21;16.40;99.90
11840;DHT22;5979;50.800;4.904;2022-10-16T18:21:47;16.30;99.90
11840;DHT22;5979;50.800;4.904;2022-10-16T18:24:18;16.20;99.90
11840;DHT22;5979;50.800;4.904;2022-10-16T18:26:44;16.20;99.90
11840;DHT22;5979;50.800;4.904;2022-10-16T18:29:11;16.10;99.90
11840;DHT22;5979;50.800;4.904;2022-10-16T18:31:37;16.10;99.90
11840;DHT22;5979;50.800;4.904;2022-10-16T18:34:04;16.10;99.90
11840;DHT22;5979;50.800;4.904;2022-10-16T18:36:32;16.00;99.90
11840;DHT22;5979;50.800;4.904;2022-10-16T18:39:00;16.10;99.90
11840;DHT22;5979;50.800;4.904;2022-10-16T18:41:28;16.00;99.90
11840;DHT22;5979;50.800;4.904;2022-10-16T18:43:54;16.00;99.90
11840;DHT22;5979;50.800;4.904;2022-10-16T18:46:22;16.00;99.90
11840;DHT22;5979;50.800;4.904;2022-10-16T18:48:49;15.90;99.90
11840;DHT22;5979;50.800;4.904;2022-10-16T18:51:28;16.00;99.90
11840;DHT22;5979;50.800;4.904;2022-10-16T18:53:57;16.00;99.90
11840;DHT22;5979;50.800;4.904;2022-10-16T18:56:25;15.90;99.90
11840;DHT22;5979;50.800;4.904;2022-10-16T18:58:52;15.90;99.90
11840;DHT22;5979;50.800;4.904;2022-10-16T19:01:25;15.90;99.90
11840;DHT22;5979;50.800;4.904;2022-10-16T19:03:59;15.90;99.90
11840;DHT22;5979;50.800;4.904;2022-10-16T19:06:26;15.90;99.90
11840;DHT22;5979;50.800;4.904;2022-10-16T19:08:54;15.90;99.90
11840;DHT22;5979;50.800;4.904;2022-10-16T19:11:22;15.90;99.90
11840;DHT22;5979;50.800;4.904;2022-10-16T19:13:49;15.90;99.90
11840;DHT22;5979;50.800;4.904;2022-10-16T19:16:21;15.90;99.90
11840;DHT22;5979;50.800;4.904;2022-10-16T19:18:52;15.90;99.90
11840;DHT22;5979;50.800;4.904;2022-10-16T19:21:19;15.90;99.90
11840;DHT22;5979;50.800;4.904;2022-10-16T19:23:45;16.00;99.90
11840;DHT22;5979;50.800;4.904;2022-10-16T19:26:15;16.00;99.90
11840;DHT22;5979;50.800;4.904;2022-10-16T19:28:43;16.00;99.90
11840;DHT22;5979;50.800;4.904;2022-10-16T19:31:11;16.00;99.90
11840;DHT22;5979;50.800;4.904;2022-10-16T19:33:38;15.90;99.90
11840;DHT22;5979;50.800;4.904;2022-10-16T19:36:15;15.90;99.90
11840;DHT22;5979;50.800;4.904;2022-10-16T19:39:04;15.90;99.90
11840;DHT22;5979;50.800;4.904;2022-10-16T19:41:30;16.00;99.90
11840;DHT22;5979;50.800;4.904;2022-10-16T19:44:03;15.90;99.90
11840;DHT22;5979;50.800;4.904;2022-10-16T19:46:30;15.90;99.90
11840;DHT22;5979;50.800;4.904;2022-10-16T19:48:58;15.90;99.90
11840;DHT22;5979;50.800;4.904;2022-10-16T19:51:25;16.00;99.90
11840;DHT22;5979;50.800;4.904;2022-10-16T19:53:57;15.90;99.90
11840;DHT22;5979;50.800;4.904;2022-10-16T19:56:25;16.00;99.90
11840;DHT22;5979;50.800;4.904;2022-10-16T19:58:52;15.90;99.90
11840;DHT22;5979;50.800;4.904;2022-10-16T20:01:18;15.90;99.90
11840;DHT22;5979;50.800;4.904;2022-10-16T20:03:46;15.90;99.90
11840;DHT22;5979;50.800;4.904;2022-10-16T20:06:13;15.80;99.90
11840;DHT22;5979;50.800;4.904;2022-10-16T20:08:40;15.90;99.90
11840;DHT22;5979;50.800;4.904;2022-10-16T20:11:12;15.80;99.90
11840;DHT22;5979;50.800;4.904;2022-10-16T20:13:38;15.80;99.90
11840;DHT22;5979;50.800;4.904;2022-10-16T20:16:05;15.80;99.90
11840;DHT22;5979;50.800;4.904;2022-10-16T20:18:31;15.70;99.90
11840;DHT22;5979;50.800;4.904;2022-10-16T20:20:57;15.60;99.90
11840;DHT22;5979;50.800;4.904;2022-10-16T20:23:23;15.60;99.90
11840;DHT22;5979;50.800;4.904;2022-10-16T20:25:49;15.50;99.90
11840;DHT22;5979;50.800;4.904;2022-10-16T20:28:19;15.50;99.90
11840;DHT22;5979;50.800;4.904;2022-10-16T20:30:47;15.40;99.90
11840;DHT22;5979;50.800;4.904;2022-10-16T20:33:14;15.40;99.90
11840;DHT22;5979;50.800;4.904;2022-10-16T20:35:45;15.30;99.90
11840;DHT22;5979;50.800;4.904;2022-10-16T20:38:12;15.30;99.90
11840;DHT22;5979;50.800;4.904;2022-10-16T20:40:40;15.20;99.90
11840;DHT22;5979;50.800;4.904;2022-10-16T20:43:07;15.10;99.90
11840;DHT22;5979;50.800;4.904;2022-10-16T20:45:34;15.10;99.90
11840;DHT22;5979;50.800;4.904;2022-10-16T20:48:00;15.00;99.90
11840;DHT22;5979;50.800;4.904;2022-10-16T20:50:29;15.00;99.90
11840;DHT22;5979;50.800;4.904;2022-10-16T20:52:55;14.90;99.90
11840;DHT22;5979;50.800;4.904;2022-10-16T20:55:21;14.80;99.90
11840;DHT22;5979;50.800;4.904;2022-10-16T20:57:46;14.80;99.90
11840;DHT22;5979;50.800;4.904;2022-10-16T21:00:13;14.80;99.90
11840;DHT22;5979;50.800;4.904;2022-10-16T21:02:39;14.80;99.90
11840;DHT22;5979;50.800;4.904;2022-10-16T21:05:05;14.80;99.90
11840;DHT22;5979;50.800;4.904;2022-10-16T21:07:31;14.80;99.90
11840;DHT22;5979;50.800;4.904;2022-10-16T21:09:57;14.80;99.90
11840;DHT22;5979;50.800;4.904;2022-10-16T21:12:23;14.80;99.90
11840;DHT22;5979;50.800;4.904;2022-10-16T21:14:50;14.70;99.90
11840;DHT22;5979;50.800;4.904;2022-10-16T21:17:16;14.70;99.90
11840;DHT22;5979;50.800;4.904;2022-10-16T21:19:42;14.70;99.90
11840;DHT22;5979;50.800;4.904;2022-10-16T21:22:08;14.70;99.90
11840;DHT22;5979;50.800;4.904;2022-10-16T21:24:34;14.70;99.90
11840;DHT22;5979;50.800;4.904;2022-10-16T21:27:01;14.70;99.90
11840;DHT22;5979;50.800;4.904;2022-10-16T21:29:26;14.70;99.90
11840;DHT22;5979;50.800;4.904;2022-10-16T21:31:52;14.70;99.90
11840;DHT22;5979;50.800;4.904;2022-10-16T21:34:18;14.70;99.90
11840;DHT22;5979;50.800;4.904;2022-10-16T21:36:43;14.70;99.90
11840;DHT22;5979;50.800;4.904;2022-10-16T21:39:14;14.80;99.90
11840;DHT22;5979;50.800;4.904;2022-10-16T21:41:42;14.80;99.90
11840;DHT22;5979;50.800;4.904;2022-10-16T21:44:08;14.80;99.90
11840;DHT22;5979;50.800;4.904;2022-10-16T21:46:36;14.80;99.90
11840;DHT22;5979;50.800;4.904;2022-10-16T21:49:04;14.80;99.90
11840;DHT22;5979;50.800;4.904;2022-10-16T21:51:35;14.70;99.90
11840;DHT22;5979;50.800;4.904;2022-10-16T21:54:02;14.70;99.90
11840;DHT22;5979;50.800;4.904;2022-10-16T21:56:28;14.70;99.90
11840;DHT22;5979;50.800;4.904;2022-10-16T21:58:54;14.60;99.90
11840;DHT22;5979;50.800;4.904;2022-10-16T22:01:23;14.60;99.90
11840;DHT22;5979;50.800;4.904;2022-10-16T22:03:49;14.60;99.90
11840;DHT22;5979;50.800;4.904;2022-10-16T22:06:16;14.60;99.90
11840;DHT22;5979;50.800;4.904;2022-10-16T22:08:44;14.60;99.90
11840;DHT22;5979;50.800;4.904;2022-10-16T22:11:22;14.60;99.90
11840;DHT22;5979;50.800;4.904;2022-10-16T22:13:48;14.60;99.90
11840;DHT22;5979;50.800;4.904;2022-10-16T22:16:18;14.50;99.90
11840;DHT22;5979;50.800;4.904;2022-10-16T22:18:44;14.50;99.90
11840;DHT22;5979;50.800;4.904;2022-10-16T22:21:10;14.40;99.90
11840;DHT22;5979;50.800;4.904;2022-10-16T22:23:35;14.40;99.90
11840;DHT22;5979;50.800;4.904;2022-10-16T22:26:04;14.40;99.90
11840;DHT22;5979;50.800;4.904;2022-10-16T22:28:30;14.40;99.90
11840;DHT22;5979;50.800;4.904;2022-10-16T22:30:59;14.30;99.90
11840;DHT22;5979;50.800;4.904;2022-10-16T22:33:25;14.30;99.90
11840;DHT22;5979;50.800;4.904;2022-10-16T22:35:51;14.30;99.90
11840;DHT22;5979;50.800;4.904;2022-10-16T22:38:17;14.30;99.90
11840;DHT22;5979;50.800;4.904;2022-10-16T22:40:42;14.30;99.90
11840;DHT22;5979;50.800;4.904;2022-10-16T22:43:08;14.20;99.90
11840;DHT22;5979;50.800;4.904;2022-10-16T22:45:35;14.20;99.90
11840;DHT22;5979;50.800;4.904;2022-10-16T22:48:01;14.10;99.90
11840;DHT22;5979;50.800;4.904;2022-10-16T22:50:28;14.10;99.90
11840;DHT22;5979;50.800;4.904;2022-10-16T22:52:54;14.10;99.90
11840;DHT22;5979;50.800;4.904;2022-10-16T22:55:20;14.00;99.90
11840;DHT22;5979;50.800;4.904;2022-10-16T22:57:46;14.00;99.90
11840;DHT22;5979;50.800;4.904;2022-10-16T23:00:14;14.00;99.90
11840;DHT22;5979;50.800;4.904;2022-10-16T23:02:40;14.00;99.90
11840;DHT22;5979;50.800;4.904;2022-10-16T23:05:07;14.00;99.90
11840;DHT22;5979;50.800;4.904;2022-10-16T23:07:33;14.10;99.90
11840;DHT22;5979;50.800;4.904;2022-10-16T23:09:59;14.00;99.90
11840;DHT22;5979;50.800;4.904;2022-10-16T23:12:25;14.00;99.90